Time;durP1;ratioP1;P1;durP2;ratioP2;P2;SDS_P1;SDS_P2;PMS_P1;PMS_P2;Temp;Humidity;BMP_temperature;BMP_pressure;BME280_temperature;BME280_humidity;BME280_pressure;Samples;Min_cycle;Max_cycle;Signal;HPM_P1;HPM_P2
2021/12/01 00:00:43;;;;;;;37.03;6.18;;;11.60;99.90;;;;;;4933773;29;20096;-85
2021/12/01 00:03:09;;;;;;;36.30;5.80;;;11.70;99.90;;;;;;4933337;29;20036;-85
2021/12/01 00:05:35;;;;;;;36.33;9.30;;;11.70;99.90;;;;;;4931943;29;20055;-85
2021/12/01 00:08:01;;;;;;;41.80;12.73;;;11.90;99.90;;;;;;4933298;29;20504;-85
2021/12/01 00:10:29;;;;;;;32.97;12.98;;;11.90;99.90;;;;;;4933089;29;20020;-85
2021/12/01 00:12:55;;;;;;;35.15;10.55;;;11.80;99.90;;;;;;4932137;29;20043;-84
2021/12/01 00:15:21;;;;;;;26.58;5.57;;;11.80;99.90;;;;;;4932264;29;20024;-85
2021/12/01 00:17:48;;;;;;;25.17;5.15;;;11.80;99.90;;;;;;4933284;29;20054;-85
2021/12/01 00:20:16;;;;;;;33.67;5.10;;;11.80;99.90;;;;;;4933149;29;20020;-85
2021/12/01 00:22:42;;;;;;;22.17;3.72;;;11.80;99.90;;;;;;4932710;29;20040;-85
2021/12/01 00:25:10;;;;;;;27.88;6.88;;;11.80;99.90;;;;;;4932783;29;20027;-84
2021/12/01 00:27:35;;;;;;;24.15;8.85;;;11.80;99.90;;;;;;4932870;29;20032;-85
2021/12/01 00:30:01;;;;;;;34.45;11.48;;;11.80;99.90;;;;;;4932255;29;20020;-85
2021/12/01 00:32:28;;;;;;;23.20;7.00;;;11.70;99.90;;;;;;4932680;29;20030;-85
2021/12/01 00:34:54;;;;;;;24.35;5.78;;;11.70;99.90;;;;;;4934527;29;20024;-84
2021/12/01 00:37:20;;;;;;;27.63;8.27;;;11.70;99.90;;;;;;4936859;29;20573;-84
2021/12/01 00:39:46;;;;;;;24.90;7.35;;;11.70;99.90;;;;;;4936847;29;20377;-84
2021/12/01 00:42:12;;;;;;;25.77;9.80;;;11.70;99.90;;;;;;4941129;29;20393;-85
2021/12/01 00:44:46;;;;;;;28.55;13.35;;;11.70;99.90;;;;;;4936566;29;20083;-84
2021/12/01 00:47:13;;;;;;;37.45;17.75;;;11.70;99.90;;;;;;4936762;29;20031;-85
2021/12/01 00:49:39;;;;;;;32.90;16.77;;;11.80;99.90;;;;;;4935137;29;20032;-85
2021/12/01 00:52:05;;;;;;;31.00;15.15;;;11.80;99.90;;;;;;4936118;29;20032;-85
2021/12/01 00:54:31;;;;;;;33.38;15.18;;;11.90;99.90;;;;;;4935780;29;20031;-84
2021/12/01 00:56:57;;;;;;;34.70;15.40;;;11.90;99.90;;;;;;4936180;29;20098;-85
2021/12/01 00:59:23;;;;;;;54.97;18.88;;;12.00;99.90;;;;;;4936366;29;20171;-85
2021/12/01 01:01:51;;;;;;;57.15;20.50;;;12.00;99.90;;;;;;4935762;29;20300;-85
2021/12/01 01:04:17;;;;;;;61.90;19.58;;;12.00;99.90;;;;;;4935708;29;20020;-84
2021/12/01 01:06:43;;;;;;;64.05;17.25;;;12.00;99.90;;;;;;4936015;29;20094;-84
2021/12/01 01:09:09;;;;;;;54.35;14.27;;;12.00;99.90;;;;;;4935849;29;20020;-85
2021/12/01 01:17:12;;;;;;;17.42;2.53;;;12.10;99.90;;;;;;4936757;29;20511;-86
2021/12/01 01:19:39;;;;;;;22.25;4.00;;;12.10;99.90;;;;;;4936343;29;20027;-87
2021/12/01 01:22:07;;;;;;;45.67;10.88;;;12.10;99.90;;;;;;4934303;29;20085;-87
2021/12/01 01:24:34;;;;;;;53.75;13.48;;;12.10;99.90;;;;;;4935378;29;20099;-87
2021/12/01 01:27:00;;;;;;;53.55;15.18;;;12.10;99.90;;;;;;4935457;29;20023;-86
2021/12/01 01:29:27;;;;;;;63.60;11.23;;;12.10;99.90;;;;;;4935798;29;20028;-86
2021/12/01 01:31:56;;;;;;;73.72;11.50;;;12.00;99.90;;;;;;4935501;29;20051;-87
2021/12/01 01:34:24;;;;;;;41.13;5.95;;;12.00;99.90;;;;;;4935599;29;20024;-86
2021/12/01 01:36:50;;;;;;;34.25;4.03;;;12.00;99.90;;;;;;4935570;29;20028;-86
2021/12/01 01:39:16;;;;;;;34.72;4.38;;;12.00;99.90;;;;;;4935495;29;20160;-86
2021/12/01 01:41:42;;;;;;;27.52;4.63;;;11.90;99.90;;;;;;4935447;29;20114;-86
2021/12/01 01:44:07;;;;;;;38.80;5.95;;;11.90;99.90;;;;;;4934129;29;20503;-86
2021/12/01 01:46:35;;;;;;;34.60;4.80;;;11.90;99.90;;;;;;4933777;29;20496;-86
2021/12/01 01:49:10;;;;;;;35.15;5.75;;;11.90;99.90;;;;;;4935727;29;20024;-86
2021/12/01 01:51:36;;;;;;;43.85;5.43;;;11.90;99.90;;;;;;4935343;29;20028;-85
2021/12/01 01:54:03;;;;;;;49.55;5.30;;;11.90;99.90;;;;;;4935656;29;20019;-85
2021/12/01 01:56:29;;;;;;;36.20;5.10;;;11.80;99.90;;;;;;4935145;29;20051;-85
2021/12/01 01:58:55;;;;;;;30.20;5.07;;;11.90;99.90;;;;;;4934723;29;20059;-84
2021/12/01 02:03:59;;;;;;;24.90;5.35;;;11.90;99.90;;;;;;4934939;29;20024;-85
2021/12/01 02:06:26;;;;;;;26.38;4.80;;;12.00;99.90;;;;;;4934905;29;20023;-85
2021/12/01 02:08:53;;;;;;;33.97;6.00;;;12.00;99.90;;;;;;4935512;29;20028;-85
2021/12/01 02:11:20;;;;;;;27.15;5.28;;;12.10;99.90;;;;;;4933939;29;20035;-85
2021/12/01 02:13:46;;;;;;;28.08;7.43;;;12.10;99.90;;;;;;4935044;29;20400;-84
2021/12/01 02:16:14;;;;;;;22.95;6.22;;;12.10;99.90;;;;;;4935107;29;20110;-84
2021/12/01 02:18:41;;;;;;;27.10;6.07;;;12.10;99.90;;;;;;4935111;29;20042;-85
2021/12/01 02:21:15;;;;;;;23.55;6.40;;;12.10;99.90;;;;;;4934669;29;20404;-85
2021/12/01 02:23:47;;;;;;;26.13;6.07;;;12.10;99.90;;;;;;4934856;29;20284;-85
2021/12/01 02:26:16;;;;;;;48.40;9.68;;;12.10;99.90;;;;;;4933428;29;20101;-84
2021/12/01 02:28:45;;;;;;;24.85;6.05;;;12.10;99.90;;;;;;4934870;29;20034;-85
2021/12/01 02:31:12;;;;;;;28.13;5.82;;;12.00;99.90;;;;;;4933656;29;20516;-84
2021/12/01 02:33:38;;;;;;;32.17;8.20;;;12.00;99.90;;;;;;4936041;29;20063;-84
2021/12/01 02:36:06;;;;;;;364.60;73.13;;;11.90;99.90;;;;;;4934796;29;20028;-84
2021/12/01 02:38:32;;;;;;;57.25;21.58;;;11.90;99.90;;;;;;4936662;29;20020;-84
2021/12/01 02:40:58;;;;;;;51.83;20.98;;;11.90;99.90;;;;;;4934149;29;20042;-84
2021/12/01 02:43:24;;;;;;;56.35;22.38;;;11.80;99.90;;;;;;4934009;29;20036;-84
2021/12/01 02:45:52;;;;;;;36.95;14.65;;;11.90;99.90;;;;;;4934123;29;20030;-84
2021/12/01 02:48:18;;;;;;;26.23;8.00;;;11.80;99.90;;;;;;4933933;29;20032;-84
2021/12/01 02:50:44;;;;;;;24.85;8.18;;;11.90;99.90;;;;;;4934169;29;20020;-83
2021/12/01 02:53:10;;;;;;;22.40;6.03;;;11.90;99.90;;;;;;4934329;29;20083;-84
2021/12/01 02:55:52;;;;;;;28.27;8.05;;;11.90;99.90;;;;;;4934521;29;20334;-83
2021/12/01 02:58:18;;;;;;;38.90;14.80;;;11.90;99.90;;;;;;4933944;29;20048;-84
2021/12/01 03:00:46;;;;;;;41.65;14.90;;;11.90;99.90;;;;;;4933876;29;20055;-84
2021/12/01 03:03:12;;;;;;;51.13;15.73;;;11.90;99.90;;;;;;4934064;29;20123;-84
2021/12/01 03:05:39;;;;;;;44.42;14.23;;;11.90;99.90;;;;;;4933897;29;20051;-84
2021/12/01 03:08:07;;;;;;;41.08;15.02;;;11.80;99.90;;;;;;4933722;29;20485;-84
2021/12/01 03:10:33;;;;;;;40.13;18.65;;;11.80;99.90;;;;;;4933633;29;20031;-84
2021/12/01 03:12:58;;;;;;;41.00;17.33;;;11.80;99.90;;;;;;4933561;29;20024;-84
2021/12/01 03:15:24;;;;;;;43.92;18.77;;;11.80;99.90;;;;;;4933471;29;20030;-84
2021/12/01 03:17:50;;;;;;;36.33;14.85;;;11.90;99.90;;;;;;4933608;29;20115;-84
2021/12/01 03:20:20;;;;;;;53.10;18.13;;;11.90;99.90;;;;;;4933618;29;20031;-84
2021/12/01 03:22:46;;;;;;;38.17;14.75;;;11.90;99.90;;;;;;4933328;29;20091;-84
2021/12/01 03:25:13;;;;;;;22.77;7.60;;;11.90;99.90;;;;;;4933182;29;20107;-84
2021/12/01 03:27:39;;;;;;;23.75;7.55;;;11.90;99.90;;;;;;4933376;29;20387;-85
2021/12/01 03:30:09;;;;;;;33.85;9.50;;;11.90;99.90;;;;;;4933219;29;20111;-85
2021/12/01 03:32:36;;;;;;;25.92;7.78;;;11.90;99.90;;;;;;4932130;29;20047;-85
2021/12/01 03:35:08;;;;;;;22.85;5.93;;;11.90;99.90;;;;;;4933377;29;20115;-85
2021/12/01 03:37:34;;;;;;;26.58;4.13;;;11.90;99.90;;;;;;4933088;29;20051;-85
2021/12/01 03:40:01;;;;;;;26.27;4.57;;;12.00;99.90;;;;;;4931766;29;20038;-85
2021/12/01 03:42:27;;;;;;;27.92;7.63;;;12.00;99.90;;;;;;4933120;29;20086;-85
2021/12/01 03:44:55;;;;;;;34.10;9.57;;;12.00;99.90;;;;;;4932996;29;20053;-85
2021/12/01 03:47:21;;;;;;;43.80;14.18;;;12.00;99.90;;;;;;4931893;29;20027;-85
2021/12/01 03:49:47;;;;;;;43.45;16.30;;;12.00;99.90;;;;;;4933067;29;20024;-86
2021/12/01 03:52:16;;;;;;;46.17;16.83;;;12.00;99.90;;;;;;4933151;29;20016;-86
2021/12/01 03:54:45;;;;;;;41.97;14.50;;;12.00;99.90;;;;;;4933250;29;20035;-85
2021/12/01 03:57:12;;;;;;;42.38;14.68;;;12.00;99.90;;;;;;4932765;29;20079;-86
2021/12/01 03:59:38;;;;;;;48.75;15.82;;;12.00;99.90;;;;;;4933053;29;20028;-86
2021/12/01 04:02:04;;;;;;;45.42;16.17;;;12.00;99.90;;;;;;4932580;29;20039;-85
2021/12/01 04:04:30;;;;;;;39.13;10.52;;;12.00;99.90;;;;;;4931657;29;20485;-85
2021/12/01 04:06:57;;;;;;;34.63;8.85;;;12.00;99.90;;;;;;4932717;29;20048;-85
2021/12/01 04:09:23;;;;;;;43.70;9.18;;;12.00;99.90;;;;;;4937705;29;20030;-86
2021/12/01 04:11:49;;;;;;;30.67;8.48;;;11.90;99.90;;;;;;4939205;29;20122;-86
2021/12/01 04:14:14;;;;;;;42.63;9.35;;;11.90;99.90;;;;;;4937751;29;20112;-85
2021/12/01 04:16:40;;;;;;;41.80;9.55;;;11.90;99.90;;;;;;4939121;29;20062;-85
2021/12/01 04:19:06;;;;;;;36.90;8.98;;;12.00;99.90;;;;;;4939076;29;20031;-85
2021/12/01 04:21:32;;;;;;;45.50;12.95;;;12.00;99.90;;;;;;4937691;29;20040;-85
2021/12/01 04:23:58;;;;;;;32.22;8.15;;;12.00;99.90;;;;;;4938687;29;20572;-85
2021/12/01 04:26:26;;;;;;;30.83;6.25;;;12.00;99.90;;;;;;4939230;29;20122;-85
2021/12/01 04:28:53;;;;;;;43.80;6.97;;;12.00;99.90;;;;;;4939047;29;20484;-85
2021/12/01 04:31:20;;;;;;;50.22;7.75;;;12.00;99.90;;;;;;4937482;29;20055;-85
2021/12/01 04:33:46;;;;;;;36.58;7.20;;;12.00;99.90;;;;;;4940081;29;20031;-85
2021/12/01 04:36:12;;;;;;;29.88;6.75;;;12.10;99.90;;;;;;4938784;29;20032;-85
2021/12/01 04:38:38;;;;;;;38.28;6.28;;;12.10;99.90;;;;;;4937851;29;20055;-85
2021/12/01 04:41:07;;;;;;;40.00;7.20;;;12.10;99.90;;;;;;4937356;29;20070;-85
2021/12/01 04:43:33;;;;;;;42.80;8.60;;;12.10;99.90;;;;;;4939060;29;20035;-85
2021/12/01 04:45:59;;;;;;;48.65;8.40;;;12.10;99.90;;;;;;4937521;29;20032;-86
2021/12/01 04:48:27;;;;;;;37.47;8.82;;;12.10;99.90;;;;;;4938844;29;20030;-85
2021/12/01 04:50:53;;;;;;;45.40;9.68;;;12.10;99.90;;;;;;4937400;29;20054;-85
2021/12/01 04:53:19;;;;;;;43.20;10.43;;;12.10;99.90;;;;;;4938848;29;20051;-85
2021/12/01 04:55:45;;;;;;;44.70;11.98;;;12.10;99.90;;;;;;4939128;29;20413;-85
2021/12/01 04:58:11;;;;;;;38.50;11.80;;;12.10;99.90;;;;;;4939014;29;20520;-85
2021/12/01 05:00:37;;;;;;;41.28;11.45;;;12.10;99.90;;;;;;4939118;29;20036;-86
2021/12/01 05:03:04;;;;;;;54.00;12.32;;;12.10;99.90;;;;;;4939291;29;20043;-85
2021/12/01 05:05:32;;;;;;;39.95;9.50;;;12.10;99.90;;;;;;4938063;29;20028;-90
2021/12/01 05:07:58;;;;;;;42.60;7.95;;;12.00;99.90;;;;;;4939407;29;20051;-88
2021/12/01 05:10:24;;;;;;;42.45;6.07;;;12.00;99.90;;;;;;4940719;29;20020;-88
2021/12/01 05:12:50;;;;;;;53.50;6.15;;;11.90;99.90;;;;;;4938733;29;20104;-86
2021/12/01 05:15:15;;;;;;;55.00;8.25;;;11.90;99.90;;;;;;4938898;29;20028;-86
2021/12/01 05:17:41;;;;;;;48.22;11.45;;;11.90;99.90;;;;;;4938719;29;20481;-86
2021/12/01 05:20:08;;;;;;;49.25;10.20;;;11.80;99.90;;;;;;4936311;29;20047;-86
2021/12/01 05:22:35;;;;;;;45.58;7.70;;;11.90;99.90;;;;;;4935562;29;20279;-85
2021/12/01 05:25:01;;;;;;;50.13;10.75;;;11.90;99.90;;;;;;4935568;29;20027;-86
2021/12/01 05:27:27;;;;;;;65.10;16.48;;;11.90;99.90;;;;;;4934302;29;20031;-86
2021/12/01 05:29:53;;;;;;;60.58;15.68;;;11.90;99.90;;;;;;4934230;29;20023;-85
2021/12/01 05:32:20;;;;;;;55.58;13.07;;;11.80;99.90;;;;;;4935695;29;20059;-85
2021/12/01 05:34:46;;;;;;;58.00;10.27;;;11.80;99.90;;;;;;4934053;29;20032;-84
2021/12/01 05:37:11;;;;;;;43.55;9.23;;;11.80;99.90;;;;;;4933986;29;20031;-84
2021/12/01 05:39:41;;;;;;;66.68;17.95;;;11.80;99.90;;;;;;4935996;29;20035;-85
2021/12/01 05:42:07;;;;;;;80.97;20.25;;;11.90;99.90;;;;;;4934630;29;20082;-86
2021/12/01 05:44:34;;;;;;;73.03;19.77;;;11.90;99.90;;;;;;4934560;29;20031;-85
2021/12/01 05:47:00;;;;;;;67.90;13.32;;;11.90;99.90;;;;;;4935602;29;20134;-86
2021/12/01 05:49:26;;;;;;;54.22;10.98;;;11.80;99.90;;;;;;4935795;29;20201;-87
2021/12/01 05:51:52;;;;;;;57.55;13.73;;;11.90;99.90;;;;;;4935904;29;20523;-86
2021/12/01 05:54:18;;;;;;;172.38;36.40;;;11.80;99.90;;;;;;4935290;29;20493;-87
2021/12/01 05:56:44;;;;;;;44.80;7.85;;;11.90;99.90;;;;;;4933684;29;20036;-85
2021/12/01 05:59:10;;;;;;;36.00;5.28;;;11.90;99.90;;;;;;4933589;29;20050;-86
2021/12/01 06:01:35;;;;;;;25.75;2.92;;;11.90;99.90;;;;;;4934715;29;20068;-85
2021/12/01 06:04:02;;;;;;;16.23;2.00;;;11.90;99.90;;;;;;4934552;29;20076;-86
2021/12/01 06:06:28;;;;;;;13.27;1.67;;;11.90;99.90;;;;;;4934687;29;20019;-85
2021/12/01 06:08:56;;;;;;;111.68;14.70;;;12.00;99.90;;;;;;4934880;29;20023;-86
2021/12/01 06:11:22;;;;;;;19.08;2.80;;;12.00;99.90;;;;;;4937281;29;20075;-85
2021/12/01 06:13:52;;;;;;;61.90;8.43;;;12.00;99.90;;;;;;4935452;29;20039;-85
2021/12/01 06:16:22;;;;;;;28.02;3.47;;;12.00;99.90;;;;;;4935438;29;20028;-84
2021/12/01 06:18:49;;;;;;;20.77;3.50;;;11.90;99.90;;;;;;4935551;29;20504;-84
2021/12/01 06:21:16;;;;;;;26.50;4.63;;;11.90;99.90;;;;;;4935290;29;20035;-84
2021/12/01 06:23:42;;;;;;;28.25;4.40;;;11.90;99.90;;;;;;4934958;29;20031;-84
2021/12/01 06:26:08;;;;;;;32.63;3.55;;;11.90;99.90;;;;;;4935150;29;20489;-85
2021/12/01 06:28:33;;;;;;;29.63;3.92;;;12.00;99.90;;;;;;4935144;29;20031;-84
2021/12/01 06:30:59;;;;;;;16.98;2.30;;;12.00;99.90;;;;;;4932840;29;20192;-85
2021/12/01 06:33:25;;;;;;;23.88;2.97;;;12.00;99.90;;;;;;4921051;29;20032;-85
2021/12/01 06:35:52;;;;;;;26.95;4.25;;;12.00;99.90;;;;;;4914715;29;20040;-84
2021/12/01 06:38:19;;;;;;;25.73;3.22;;;12.00;99.90;;;;;;4930191;29;20052;-84
2021/12/01 06:40:46;;;;;;;26.85;2.67;;;12.00;99.90;;;;;;4934681;29;20039;-85
2021/12/01 06:43:12;;;;;;;28.75;3.65;;;12.00;99.90;;;;;;4931109;29;20542;-85
2021/12/01 06:45:38;;;;;;;27.33;2.90;;;12.00;99.90;;;;;;4934244;29;20016;-84
2021/12/01 06:48:05;;;;;;;24.52;3.30;;;11.90;99.90;;;;;;4936881;29;20038;-85
2021/12/01 06:50:30;;;;;;;31.95;3.13;;;11.90;99.90;;;;;;4937898;29;20027;-85
2021/12/01 06:52:57;;;;;;;34.75;3.50;;;11.90;99.90;;;;;;4938550;29;20032;-85
2021/12/01 06:55:23;;;;;;;35.92;4.85;;;11.90;99.90;;;;;;4943987;29;20074;-86
2021/12/01 06:57:49;;;;;;;22.30;3.53;;;11.90;99.90;;;;;;4944392;29;20279;-85
2021/12/01 07:00:18;;;;;;;28.27;4.05;;;11.90;99.90;;;;;;4939350;29;20019;-85
2021/12/01 07:02:44;;;;;;;26.58;3.20;;;11.90;99.90;;;;;;4935683;29;20118;-85
2021/12/01 07:05:11;;;;;;;34.47;5.13;;;11.90;99.90;;;;;;4936410;29;20032;-84
2021/12/01 07:07:37;;;;;;;34.55;4.70;;;11.80;99.90;;;;;;4936749;29;20039;-86
2021/12/01 07:10:06;;;;;;;51.75;5.63;;;11.70;99.90;;;;;;4935070;29;20023;-84
2021/12/01 07:12:31;;;;;;;48.40;5.53;;;11.70;99.90;;;;;;4933398;29;20039;-84
2021/12/01 07:14:57;;;;;;;44.75;5.60;;;11.60;99.90;;;;;;4937790;29;20023;-82
2021/12/01 07:17:23;;;;;;;52.83;5.93;;;11.60;99.90;;;;;;4933746;29;20032;-83
2021/12/01 07:19:48;;;;;;;39.75;5.38;;;11.50;99.90;;;;;;4933263;29;20028;-83
2021/12/01 07:22:15;;;;;;;45.80;5.45;;;11.50;99.90;;;;;;4933369;29;20036;-83
2021/12/01 07:24:41;;;;;;;49.45;5.57;;;11.40;99.90;;;;;;4933346;29;20022;-82
2021/12/01 07:27:07;;;;;;;68.22;7.43;;;11.30;99.90;;;;;;4933251;29;20019;-82
2021/12/01 07:29:35;;;;;;;53.50;6.50;;;11.20;99.90;;;;;;4933379;29;20051;-82
2021/12/01 07:32:01;;;;;;;57.47;5.72;;;11.20;99.90;;;;;;4933243;29;20016;-82
2021/12/01 07:34:27;;;;;;;69.50;7.57;;;11.10;99.90;;;;;;4933104;29;20027;-82
2021/12/01 07:36:52;;;;;;;47.95;7.22;;;11.10;99.90;;;;;;4932769;29;20024;-82
2021/12/01 07:39:19;;;;;;;63.70;6.70;;;11.00;99.90;;;;;;4940095;29;20497;-83
2021/12/01 07:41:46;;;;;;;54.45;6.57;;;10.90;99.90;;;;;;4949458;29;20038;-83
2021/12/01 07:44:12;;;;;;;61.13;7.07;;;10.90;99.90;;;;;;4943744;29;20027;-83
2021/12/01 07:46:37;;;;;;;70.00;8.57;;;10.80;99.90;;;;;;4942200;29;20031;-83
2021/12/01 07:49:04;;;;;;;64.30;7.55;;;10.80;99.90;;;;;;4939783;29;20501;-83
2021/12/01 07:51:29;;;;;;;63.30;7.70;;;10.80;99.90;;;;;;4938589;29;20028;-84
2021/12/01 07:53:55;;;;;;;69.70;9.90;;;10.80;99.90;;;;;;4935449;29;20043;-83
2021/12/01 07:56:21;;;;;;;76.25;9.43;;;10.80;99.90;;;;;;4932825;29;20599;-83
2021/12/01 07:58:47;;;;;;;67.13;8.70;;;10.70;99.90;;;;;;4932630;29;20559;-83
2021/12/01 08:01:12;;;;;;;66.43;8.77;;;10.80;99.90;;;;;;4932731;29;20035;-83
2021/12/01 08:03:38;;;;;;;63.22;9.07;;;10.70;99.90;;;;;;4931586;29;20442;-83
2021/12/01 08:06:04;;;;;;;60.60;8.70;;;10.70;99.90;;;;;;4932714;29;20034;-83
2021/12/01 08:08:29;;;;;;;62.25;8.65;;;10.80;99.90;;;;;;4932663;29;20102;-83
2021/12/01 08:10:56;;;;;;;50.90;7.65;;;10.80;99.90;;;;;;4932671;29;20038;-83
2021/12/01 08:13:22;;;;;;;59.00;7.15;;;10.90;99.90;;;;;;4932813;29;20059;-84
2021/12/01 08:15:49;;;;;;;71.07;9.35;;;10.90;99.90;;;;;;4932644;29;20086;-84
2021/12/01 08:18:16;;;;;;;67.90;9.25;;;10.90;99.90;;;;;;4932629;29;20110;-84
2021/12/01 08:20:41;;;;;;;66.70;10.23;;;10.90;99.90;;;;;;4932790;29;20103;-84
2021/12/01 08:23:07;;;;;;;58.05;7.10;;;11.00;99.90;;;;;;4931278;29;20485;-84
2021/12/01 08:25:33;;;;;;;57.53;8.20;;;11.00;99.90;;;;;;4932666;29;20091;-84
2021/12/01 08:28:01;;;;;;;60.17;9.23;;;11.00;99.90;;;;;;4932702;29;20508;-84
2021/12/01 08:30:27;;;;;;;65.18;7.85;;;10.90;99.90;;;;;;4932459;29;20027;-84
2021/12/01 08:32:54;;;;;;;62.88;8.40;;;10.90;99.90;;;;;;4932417;29;20082;-84
2021/12/01 08:35:20;;;;;;;54.63;8.10;;;10.90;99.90;;;;;;4932894;29;20028;-84
2021/12/01 08:37:45;;;;;;;53.05;7.93;;;10.90;99.90;;;;;;4932535;29;20023;-84
2021/12/01 08:40:14;;;;;;;60.00;7.60;;;10.90;99.90;;;;;;4932480;29;20043;-84
2021/12/01 08:42:40;;;;;;;54.60;6.80;;;10.90;99.90;;;;;;4932509;29;20492;-84
2021/12/01 08:45:07;;;;;;;53.50;7.90;;;11.00;99.90;;;;;;4932490;29;20042;-85
2021/12/01 08:47:33;;;;;;;60.17;6.50;;;10.90;99.90;;;;;;4932381;29;20390;-85
2021/12/01 08:49:59;;;;;;;55.67;8.75;;;10.90;99.90;;;;;;4932467;29;20163;-85
2021/12/01 08:52:25;;;;;;;62.13;6.55;;;11.00;99.90;;;;;;4932405;29;20028;-84
2021/12/01 08:54:51;;;;;;;48.72;6.38;;;11.00;99.90;;;;;;4934085;29;20480;-84
2021/12/01 08:57:17;;;;;;;50.40;7.28;;;11.00;99.90;;;;;;4935801;29;20050;-84
2021/12/01 08:59:44;;;;;;;47.13;7.35;;;11.00;99.90;;;;;;4936099;29;20099;-85
2021/12/01 09:02:10;;;;;;;61.13;8.70;;;11.00;99.90;;;;;;4935903;29;20312;-85
2021/12/01 09:04:36;;;;;;;50.20;7.60;;;11.00;99.90;;;;;;4935907;29;20416;-85
2021/12/01 09:07:03;;;;;;;54.13;6.95;;;11.00;99.90;;;;;;4935768;29;20102;-85
2021/12/01 09:09:29;;;;;;;45.47;6.75;;;11.00;99.90;;;;;;4935852;29;20027;-85
2021/12/01 09:11:55;;;;;;;61.72;7.72;;;11.00;99.90;;;;;;4935783;29;20528;-85
2021/12/01 09:14:26;;;;;;;56.30;7.80;;;11.10;99.90;;;;;;4934532;29;20116;-86
2021/12/01 09:16:55;;;;;;;59.15;7.68;;;11.10;99.90;;;;;;4934562;29;20441;-85
2021/12/01 09:19:22;;;;;;;51.45;8.55;;;11.10;99.90;;;;;;4936066;29;20055;-85
2021/12/01 09:21:48;;;;;;;65.38;7.93;;;11.20;99.90;;;;;;4935546;29;20066;-85
2021/12/01 09:24:15;;;;;;;58.40;7.72;;;11.10;99.90;;;;;;4935346;29;20108;-86
2021/12/01 09:26:41;;;;;;;58.67;8.38;;;11.10;99.90;;;;;;4935512;29;20288;-86
2021/12/01 09:29:07;;;;;;;68.65;8.80;;;11.10;99.90;;;;;;4935263;29;20030;-86
2021/12/01 09:31:32;;;;;;;72.78;8.98;;;11.00;99.90;;;;;;4935603;29;20032;-86
2021/12/01 09:33:58;;;;;;;63.45;8.80;;;11.00;99.90;;;;;;4935205;29;20027;-86
2021/12/01 09:36:24;;;;;;;56.22;9.80;;;11.10;99.90;;;;;;4935442;29;20504;-86
2021/12/01 09:38:51;;;;;;;70.53;9.63;;;11.10;99.90;;;;;;4935268;29;20449;-86
2021/12/01 09:41:17;;;;;;;65.80;9.25;;;11.20;99.90;;;;;;4935121;29;20476;-86
2021/12/01 09:43:42;;;;;;;71.18;9.98;;;11.30;99.90;;;;;;4935217;29;20492;-86
2021/12/01 09:46:09;;;;;;;62.78;9.02;;;11.30;99.90;;;;;;4935064;29;20024;-86
2021/12/01 09:48:38;;;;;;;62.47;9.40;;;11.30;99.90;;;;;;4935160;29;20266;-86
2021/12/01 09:51:04;;;;;;;64.18;8.07;;;11.30;99.90;;;;;;4933882;29;20034;-86
2021/12/01 09:53:30;;;;;;;54.75;8.57;;;11.40;99.90;;;;;;4933782;29;20028;-86
2021/12/01 09:55:56;;;;;;;71.85;8.60;;;11.40;99.90;;;;;;4933753;29;20540;-86
2021/12/01 09:58:25;;;;;;;59.67;8.05;;;11.40;99.90;;;;;;4934781;29;20043;-87
2021/12/01 10:00:57;;;;;;;68.90;7.43;;;11.50;99.90;;;;;;4934803;29;20024;-87
2021/12/01 10:03:23;;;;;;;56.22;8.20;;;11.50;99.90;;;;;;4934742;29;20559;-87
2021/12/01 10:06:04;;;;;;;58.83;7.97;;;11.60;99.90;;;;;;4932737;29;20072;-86
2021/12/01 10:08:40;;;;;;;67.13;9.93;;;11.70;99.90;;;;;;4933348;29;20035;-86
2021/12/01 10:11:14;;;;;;;46.95;7.28;;;11.70;99.90;;;;;;4933380;29;20086;-87
2021/12/01 10:13:54;;;;;;;54.67;7.13;;;11.80;99.90;;;;;;4934087;29;20571;-87
2021/12/01 10:16:21;;;;;;;66.13;9.00;;;11.80;99.90;;;;;;4935258;29;20031;-86
2021/12/01 10:18:49;;;;;;;54.13;7.15;;;11.80;99.90;;;;;;4933903;29;20023;-87
2021/12/01 10:21:30;;;;;;;49.28;7.22;;;11.80;99.90;;;;;;4935496;29;20063;-89
2021/12/01 10:24:00;;;;;;;62.45;8.15;;;11.80;99.90;;;;;;4934079;29;20548;-87
2021/12/01 10:26:26;;;;;;;50.90;7.28;;;11.80;99.90;;;;;;4934184;29;20044;-86
2021/12/01 10:28:55;;;;;;;53.88;7.50;;;11.90;99.90;;;;;;4934131;29;20514;-87
2021/12/01 10:31:36;;;;;;;58.22;9.73;;;11.90;99.90;;;;;;4935343;29;20041;-87
2021/12/01 10:34:19;;;;;;;56.50;7.30;;;12.00;99.90;;;;;;4935121;29;20505;-87
2021/12/01 10:36:50;;;;;;;40.97;6.18;;;12.00;99.90;;;;;;4935282;29;20393;-87
2021/12/01 10:39:16;;;;;;;54.40;8.00;;;12.00;99.90;;;;;;4933664;29;20023;-87
2021/12/01 10:41:43;;;;;;;40.42;6.97;;;12.10;99.90;;;;;;4935075;29;20027;-88
2021/12/01 10:44:12;;;;;;;51.22;6.55;;;12.10;99.90;;;;;;4934231;29;20163;-88
2021/12/01 10:46:45;;;;;;;50.70;7.70;;;12.10;99.90;;;;;;4932907;29;20039;-88
2021/12/01 10:49:11;;;;;;;47.00;6.20;;;12.10;99.90;;;;;;4934613;29;20056;-88
2021/12/01 10:51:40;;;;;;;52.97;8.20;;;12.20;99.90;;;;;;4932942;29;20267;-88
2021/12/01 10:54:17;;;;;;;45.35;5.72;;;12.20;99.90;;;;;;4934144;29;20042;-90
2021/12/01 10:56:46;;;;;;;40.70;6.32;;;12.20;99.90;;;;;;4932775;29;20042;-90
2021/12/01 10:59:15;;;;;;;38.75;5.80;;;12.20;99.90;;;;;;4933430;29;20624;-88
2021/12/01 11:01:41;;;;;;;35.28;5.68;;;12.20;99.90;;;;;;4934913;29;20040;-88
2021/12/01 11:04:07;;;;;;;43.63;6.68;;;12.30;99.90;;;;;;4938067;29;20024;-88
2021/12/01 11:06:39;;;;;;;49.35;6.75;;;12.30;99.90;;;;;;4937790;29;20051;-88
2021/12/01 11:09:05;;;;;;;51.38;6.78;;;12.20;99.90;;;;;;4934506;29;20027;-88
2021/12/01 11:11:47;;;;;;;54.58;6.82;;;12.30;99.90;;;;;;4934429;29;20488;-87
2021/12/01 11:14:18;;;;;;;40.67;6.57;;;12.30;99.90;;;;;;4933845;29;20017;-87
2021/12/01 11:16:45;;;;;;;38.53;6.63;;;12.30;99.90;;;;;;4933508;29;20119;-88
2021/12/01 11:19:12;;;;;;;40.88;6.38;;;12.30;99.90;;;;;;4931682;29;20509;-90
2021/12/01 11:21:39;;;;;;;44.67;5.90;;;12.40;99.90;;;;;;4934504;29;20118;-88
2021/12/01 11:24:10;;;;;;;38.95;6.97;;;12.40;99.90;;;;;;4931443;29;20065;-88
2021/12/01 11:26:37;;;;;;;42.25;6.32;;;12.50;99.90;;;;;;4933871;29;20043;-87
2021/12/01 11:29:09;;;;;;;40.58;5.80;;;12.40;99.90;;;;;;4933448;29;20027;-87
2021/12/01 11:31:39;;;;;;;43.33;6.03;;;12.40;99.90;;;;;;4933919;29;20159;-88
2021/12/01 11:34:07;;;;;;;38.28;6.40;;;12.40;99.90;;;;;;4932346;29;20031;-88
2021/12/01 11:36:37;;;;;;;37.92;6.25;;;12.50;99.90;;;;;;4920393;29;20235;-88
2021/12/01 11:39:10;;;;;;;48.10;7.32;;;12.50;99.90;;;;;;4914142;29;20409;-88
2021/12/01 11:41:42;;;;;;;44.33;5.32;;;12.50;99.90;;;;;;4914300;29;20055;-88
2021/12/01 11:44:09;;;;;;;43.60;6.60;;;12.50;99.90;;;;;;4914220;29;20600;-88
2021/12/01 11:46:35;;;;;;;30.23;5.85;;;12.60;99.90;;;;;;4914765;29;20020;-88
2021/12/01 11:49:10;;;;;;;44.72;5.80;;;12.60;99.90;;;;;;4912769;29;20083;-88
2021/12/01 11:52:04;;;;;;;45.70;6.63;;;12.60;99.90;;;;;;4914061;29;20024;-88
2021/12/01 11:54:33;;;;;;;42.50;6.55;;;12.70;99.90;;;;;;4914083;29;20497;-87
2021/12/01 11:57:02;;;;;;;35.67;6.28;;;12.70;99.90;;;;;;4913792;29;20032;-89
2021/12/01 11:59:30;;;;;;;42.33;7.30;;;12.80;99.90;;;;;;4913519;29;20160;-86
2021/12/01 12:01:55;;;;;;;46.28;7.32;;;12.80;99.90;;;;;;4914732;29;20036;-87
2021/12/01 12:04:26;;;;;;;42.08;6.22;;;12.80;99.90;;;;;;4914631;29;20046;-86
2021/12/01 12:07:00;;;;;;;35.50;5.93;;;12.80;99.90;;;;;;4913679;29;20083;-87
2021/12/01 12:09:28;;;;;;;42.17;5.32;;;12.90;99.90;;;;;;4914459;29;20483;-87
2021/12/01 12:12:20;;;;;;;39.95;6.60;;;12.80;99.90;;;;;;4914555;29;20091;-87
2021/12/01 12:14:46;;;;;;;39.22;5.35;;;12.90;99.90;;;;;;4913880;29;20103;-88
2021/12/01 12:17:14;;;;;;;37.42;6.00;;;12.80;99.90;;;;;;4914230;29;20450;-87
2021/12/01 12:20:02;;;;;;;37.40;5.88;;;12.80;99.90;;;;;;4913886;29;20035;-88
2021/12/01 12:22:37;;;;;;;41.35;6.07;;;12.80;99.90;;;;;;4913673;29;20680;-87
2021/12/01 12:25:06;;;;;;;35.17;5.93;;;12.70;99.90;;;;;;4912420;29;20032;-87
2021/12/01 12:27:37;;;;;;;38.70;6.88;;;12.70;99.90;;;;;;4913560;29;20024;-87
2021/12/01 12:30:13;;;;;;;35.80;4.63;;;12.80;99.90;;;;;;4916378;29;20028;-87
2021/12/01 12:32:42;;;;;;;41.50;5.93;;;12.80;99.90;;;;;;4918676;29;20045;-89
2021/12/01 12:35:14;;;;;;;31.55;4.93;;;12.70;99.90;;;;;;4918158;29;20028;-88
2021/12/01 12:37:41;;;;;;;43.80;5.72;;;12.80;99.90;;;;;;4918501;29;20032;-87
2021/12/01 12:40:30;;;;;;;41.22;5.95;;;12.70;99.90;;;;;;4917831;29;20090;-88
2021/12/01 12:43:05;;;;;;;42.30;5.35;;;12.80;99.90;;;;;;4917824;29;20127;-89
2021/12/01 12:45:31;;;;;;;47.58;7.15;;;12.80;99.90;;;;;;4918181;29;20060;-87